createdAt,value
2023-01-10T00:29:47.944Z,0
2023-01-10T00:30:28.265Z,0
2023-01-10T00:31:08.863Z,0
2023-01-10T00:31:49.276Z,0
2023-01-10T00:32:29.779Z,0
2023-01-10T00:33:10.293Z,0
2023-01-10T00:33:50.757Z,0
2023-01-10T00:34:31.249Z,0
2023-01-10T00:35:11.744Z,0
2023-01-10T00:35:52.251Z,0
2023-01-10T00:43:17.711Z,0
2023-01-10T00:43:58.222Z,0
2023-01-10T00:44:38.727Z,0
2023-01-10T00:45:19.273Z,0
2023-01-10T00:45:59.766Z,0
2023-01-10T00:46:40.212Z,0
2023-01-10T00:47:20.716Z,0
2023-01-10T00:48:01.220Z,0
2023-01-10T00:48:41.723Z,0
2023-01-10T00:50:02.725Z,0
2023-01-10T00:56:47.693Z,0
2023-01-10T00:57:28.198Z,0
2023-01-10T00:58:08.694Z,0
2023-01-10T00:58:49.161Z,0
2023-01-10T00:59:29.709Z,0
2023-01-10T01:02:44.158Z,0
2023-01-10T01:03:24.235Z,0
2023-01-10T01:04:04.793Z,0
2023-01-10T01:04:45.237Z,0
2023-01-10T01:05:25.738Z,0
2023-01-10T01:06:06.240Z,0
2023-01-10T01:06:46.691Z,0
2023-01-10T01:07:27.193Z,0
2023-01-10T01:08:07.753Z,0
2023-01-10T01:08:48.196Z,0
2023-01-10T01:15:33.303Z,0
2023-01-10T01:16:13.752Z,0
2023-01-10T01:16:54.211Z,0
2023-01-10T01:17:34.700Z,0
2023-01-10T01:18:15.244Z,0
2023-01-10T01:18:55.733Z,0
2023-01-10T01:19:36.264Z,0
2023-01-10T01:20:16.769Z,0
2023-01-10T01:20:57.292Z,0
2023-01-10T01:21:37.836Z,0
2023-01-10T01:29:03.407Z,0
2023-01-10T01:29:43.897Z,0
2023-01-10T01:30:24.377Z,0
2023-01-10T01:31:04.896Z,0
2023-01-10T01:31:45.339Z,0
2023-01-10T01:32:25.876Z,0
2023-01-10T01:33:06.379Z,0
2023-01-10T01:33:46.938Z,0
2023-01-10T01:34:27.403Z,0
2023-01-10T01:35:07.979Z,0
2023-01-10T01:35:48.401Z,0
2023-01-10T01:42:33.276Z,0
2023-01-10T01:43:13.755Z,0
2023-01-10T01:43:54.265Z,0
2023-01-10T01:44:34.756Z,0
2023-01-10T01:45:15.231Z,0
2023-01-10T01:45:55.721Z,0
2023-01-10T01:46:36.215Z,0
2023-01-10T01:47:16.719Z,0
2023-01-10T01:47:57.268Z,0
2023-01-10T01:48:37.721Z,0
2023-01-10T01:49:18.225Z,0
2023-01-10T01:56:03.226Z,0
2023-01-10T01:56:43.730Z,0
2023-01-10T01:57:24.213Z,0
2023-01-10T01:58:04.719Z,0
2023-01-10T01:58:45.246Z,0
2023-01-10T01:59:25.756Z,0
2023-01-10T02:00:06.245Z,0
2023-01-10T02:00:46.750Z,0
2023-01-10T02:01:27.345Z,0
2023-01-10T02:02:07.821Z,0
2023-01-10T02:03:01.428Z,0
2023-01-10T02:10:13.572Z,0
2023-01-10T02:10:54.095Z,0
2023-01-10T02:11:34.615Z,0
2023-01-10T02:12:15.131Z,0
2023-01-10T02:12:55.622Z,0
2023-01-10T02:13:36.124Z,0
2023-01-10T02:14:16.607Z,0
2023-01-10T02:14:57.136Z,0
2023-01-10T02:15:37.625Z,0
2023-01-10T02:16:18.141Z,0
2023-01-10T02:16:58.576Z,0
2023-01-10T02:23:43.531Z,0
2023-01-10T02:24:24.004Z,0
2023-01-10T02:25:04.479Z,0
2023-01-10T02:25:44.995Z,0
2023-01-10T02:26:25.484Z,0
2023-01-10T02:27:06.001Z,0
2023-01-10T02:27:46.488Z,0
2023-01-10T02:28:26.954Z,0
2023-01-10T02:29:47.959Z,0
2023-01-10T02:30:28.491Z,0
2023-01-10T02:37:13.390Z,0
2023-01-10T02:37:53.915Z,0
2023-01-10T02:38:34.479Z,0
2023-01-10T02:39:14.932Z,0
2023-01-10T02:39:55.446Z,0
2023-01-10T02:40:35.888Z,0
2023-01-10T02:41:16.432Z,0
2023-01-10T02:41:56.970Z,0
2023-01-10T02:42:37.496Z,0
2023-01-10T02:43:17.983Z,0
2023-01-10T02:43:58.438Z,0
2023-01-10T02:50:03.212Z,0
2023-01-10T02:50:43.701Z,0
2023-01-10T02:51:24.203Z,0
2023-01-10T02:52:04.679Z,0
2023-01-10T02:52:45.110Z,0
2023-01-10T02:53:25.621Z,0
2023-01-10T02:54:06.129Z,0
2023-01-10T02:55:27.133Z,0
2023-01-10T02:56:07.611Z,0
2023-01-10T02:56:48.090Z,0
2023-01-10T03:00:47.242Z,0
2023-01-10T03:01:27.836Z,0
2023-01-10T03:02:08.217Z,0
2023-01-10T03:02:48.668Z,0
2023-01-10T03:03:29.132Z,0
2023-01-10T03:04:09.630Z,0
2023-01-10T03:04:50.182Z,0
2023-01-10T03:05:30.673Z,0
2023-01-10T03:06:11.117Z,0
2023-01-10T03:06:51.654Z,0
2023-01-10T03:07:32.115Z,0
2023-01-10T03:08:53.112Z,0
2023-01-10T03:09:34.434Z,0
2023-01-10T03:13:48.306Z,0
2023-01-10T03:14:29.387Z,0
2023-01-10T03:15:10.364Z,0
2023-01-10T03:15:51.502Z,0
2023-01-10T03:16:33.245Z,0
2023-01-10T03:19:58.357Z,0
2023-01-10T03:20:39.335Z,0
2023-01-10T03:21:20.340Z,0
2023-01-10T03:22:01.477Z,0
2023-01-10T03:22:42.480Z,0
2023-01-10T03:26:48.538Z,0
2023-01-10T03:27:29.557Z,0
2023-01-10T03:28:10.589Z,0
2023-01-10T03:28:51.659Z,0
2023-01-10T03:29:32.700Z,0
2023-01-10T03:32:57.827Z,0
2023-01-10T03:33:38.745Z,0
2023-01-10T03:34:19.726Z,0
2023-01-10T03:35:00.719Z,0
2023-01-10T03:35:41.855Z,0
2023-01-10T03:36:22.825Z,0
2023-01-10T03:39:47.911Z,0
2023-01-10T03:40:28.909Z,0
2023-01-10T03:41:09.913Z,0
2023-01-10T03:41:50.912Z,0
2023-01-10T03:45:20.164Z,0
2023-01-10T03:46:00.703Z,0
2023-01-10T03:46:41.463Z,0
2023-01-10T03:47:21.852Z,0
2023-01-10T03:48:02.452Z,0
2023-01-10T03:48:42.890Z,0
2023-01-10T03:49:23.484Z,0
2023-01-10T03:50:03.990Z,0
2023-01-10T03:50:44.558Z,0
2023-01-10T03:51:24.992Z,0
2023-01-10T03:58:50.489Z,0
2023-01-10T03:59:31.010Z,0
2023-01-10T04:00:11.502Z,0
2023-01-10T04:00:52.094Z,0
2023-01-10T04:01:32.613Z,0
2023-01-10T04:02:13.003Z,0
2023-01-10T04:02:53.497Z,0
2023-01-10T04:03:33.973Z,0
2023-01-10T04:04:14.507Z,0
2023-01-10T04:04:54.957Z,0
2023-01-10T04:11:40.199Z,0
2023-01-10T04:12:20.676Z,0
2023-01-10T04:13:01.226Z,0
2023-01-10T04:13:41.723Z,0
2023-01-10T04:15:02.757Z,0
2023-01-10T04:15:43.202Z,0
2023-01-10T04:16:23.729Z,0
2023-01-10T04:17:05.156Z,0
2023-01-10T04:17:44.653Z,0
2023-01-10T04:18:25.199Z,0
2023-01-10T04:25:10.379Z,0
2023-01-10T04:25:50.913Z,0
2023-01-10T04:26:31.333Z,0
2023-01-10T04:27:11.859Z,0
2023-01-10T04:27:52.364Z,0
2023-01-10T04:28:32.854Z,0
2023-01-10T04:29:13.335Z,0
2023-01-10T04:29:53.857Z,0
2023-01-10T04:30:34.436Z,0
2023-01-10T04:31:14.970Z,0
2023-01-10T04:38:40.443Z,0
2023-01-10T04:39:21.018Z,0
2023-01-10T04:40:01.522Z,0
2023-01-10T04:40:42.035Z,0
2023-01-10T04:41:22.565Z,0
2023-01-10T04:42:03.089Z,0
2023-01-10T04:42:43.568Z,0
2023-01-10T04:43:24.011Z,0
2023-01-10T04:44:04.539Z,0
2023-01-10T04:44:45.037Z,0
2023-01-10T04:53:08.643Z,0
2023-01-10T04:53:48.304Z,0
2023-01-10T04:54:28.867Z,0
2023-01-10T04:55:09.357Z,0
2023-01-10T04:55:49.893Z,0
2023-01-10T04:56:30.437Z,0
2023-01-10T04:57:10.954Z,0
2023-01-10T04:57:51.432Z,0
2023-01-10T04:58:31.946Z,0
2023-01-10T04:59:12.473Z,0
2023-01-10T05:04:37.586Z,0
2023-01-10T05:05:18.139Z,0
2023-01-10T05:05:58.693Z,0
2023-01-10T05:06:39.232Z,0
2023-01-10T05:07:19.743Z,0
2023-01-10T05:08:00.283Z,0
2023-01-10T05:08:40.844Z,0
2023-01-10T05:09:21.382Z,0
2023-01-10T05:10:02.153Z,0
2023-01-10T05:10:42.647Z,0
2023-01-10T05:16:47.550Z,0
2023-01-10T05:17:28.090Z,0
2023-01-10T05:18:08.591Z,0
2023-01-10T05:18:49.066Z,0
2023-01-10T05:19:29.762Z,0
2023-01-10T05:20:10.303Z,0
2023-01-10T05:20:50.792Z,0
2023-01-10T05:21:31.308Z,0
2023-01-10T05:22:11.857Z,0
2023-01-10T05:22:52.327Z,0
2023-01-10T05:28:17.642Z,0
2023-01-10T05:28:58.143Z,0
2023-01-10T05:29:39.132Z,0
2023-01-10T05:30:19.692Z,0
2023-01-10T05:31:00.246Z,0
2023-01-10T05:31:40.843Z,0
2023-01-10T05:32:21.256Z,0
2023-01-10T05:33:03.300Z,0
2023-01-10T05:37:19.035Z,0
2023-01-10T05:38:00.219Z,0
2023-01-10T05:38:41.440Z,0
2023-01-10T05:39:22.008Z,0
2023-01-10T05:40:02.481Z,0
2023-01-10T05:44:47.695Z,0
2023-01-10T05:48:01.928Z,0
2023-01-10T05:48:43.439Z,0
2023-01-10T05:49:23.917Z,0
2023-01-10T05:50:04.481Z,0
2023-01-10T05:50:44.929Z,0
2023-01-10T05:51:26.481Z,0
2023-01-10T06:32:25.352Z,0
2023-01-10T06:33:05.894Z,0
2023-01-10T06:33:47.146Z,0
2023-01-10T06:34:27.766Z,0
2023-01-10T06:35:08.303Z,0
2023-01-10T06:35:48.826Z,0
2023-01-10T06:39:02.786Z,0
2023-01-10T06:39:44.160Z,0
2023-01-10T06:40:24.688Z,0
2023-01-10T06:41:05.248Z,0
2023-01-10T06:41:45.741Z,0
2023-01-10T06:47:50.811Z,0
2023-01-10T06:48:31.109Z,0
2023-01-10T06:49:11.651Z,0
2023-01-10T06:49:52.746Z,0
2023-01-10T06:54:55.023Z,0
2023-01-10T06:55:35.222Z,0
2023-01-10T06:56:16.180Z,0
2023-01-10T06:59:30.459Z,0
2023-01-10T07:00:11.288Z,0
2023-01-10T07:00:51.952Z,0
2023-01-10T07:01:32.553Z,0
2023-01-10T07:04:54.979Z,0
2023-01-10T07:05:34.570Z,0
2023-01-10T07:06:15.101Z,4
2023-01-10T07:09:36.446Z,4
2023-01-10T07:10:16.970Z,4
2023-01-10T07:10:57.987Z,4
2023-01-10T07:11:38.797Z,4
2023-01-10T07:12:19.882Z,4
2023-01-10T07:12:59.990Z,8
2023-01-10T07:13:40.479Z,8
2023-01-10T07:14:21.508Z,8
2023-01-10T07:19:06.135Z,16
2023-01-10T07:19:46.686Z,20
2023-01-10T07:20:28.064Z,20
2023-01-10T07:21:07.953Z,20
2023-01-10T07:21:48.681Z,24
2023-01-10T07:22:29.999Z,28
2023-01-10T07:23:12.146Z,24
2023-01-10T07:23:53.022Z,28
2023-01-10T07:25:15.874Z,36
2023-01-10T07:25:58.295Z,36
2023-01-10T07:26:39.408Z,36
2023-01-10T07:27:20.407Z,44
2023-01-10T07:28:00.769Z,44
2023-01-10T07:32:06.289Z,64
2023-01-10T07:32:47.547Z,68
2023-01-10T07:33:29.289Z,68
2023-01-10T07:34:09.591Z,72
2023-01-10T07:34:51.090Z,76
2023-01-10T07:38:19.612Z,96
2023-01-10T07:38:56.867Z,100
2023-01-10T07:39:56.949Z,108
2023-01-10T07:40:40.891Z,112
2023-01-10T07:41:20.995Z,120
2023-01-10T07:44:05.902Z,136
2023-01-10T07:44:48.670Z,144
2023-01-10T07:45:27.386Z,148
2023-01-10T07:46:08.232Z,152
2023-01-10T07:46:48.887Z,160
2023-01-10T07:47:29.436Z,168
2023-01-10T07:48:09.969Z,172
2023-01-10T07:51:40.722Z,204
2023-01-10T07:56:52.484Z,256
2023-01-10T07:57:33.236Z,264
2023-01-10T07:58:13.849Z,272
2023-01-10T07:58:56.587Z,284
2023-01-10T07:59:39.597Z,292
2023-01-10T08:01:02.106Z,308
2023-01-10T08:01:43.247Z,312
2023-01-10T08:02:24.138Z,324
2023-01-10T08:03:05.711Z,328
2023-01-10T08:03:46.418Z,336
2023-01-10T08:05:51.926Z,360
2023-01-10T08:06:33.057Z,372
2023-01-10T08:07:15.022Z,376
2023-01-10T08:07:55.704Z,384
2023-01-10T08:08:36.313Z,392
2023-01-10T08:12:01.244Z,424
2023-01-10T08:12:42.523Z,432
2023-01-10T08:16:22.051Z,440
2023-01-10T08:17:01.797Z,444
2023-01-10T08:17:42.334Z,460
2023-01-10T08:18:23.366Z,468
2023-01-10T08:23:49.236Z,480
2023-01-10T08:24:30.169Z,484
2023-01-10T08:25:10.597Z,492
2023-01-10T08:25:51.452Z,504
2023-01-10T08:26:32.183Z,512
2023-01-10T08:27:12.862Z,524
2023-01-10T08:30:29.845Z,552
2023-01-10T08:31:10.294Z,560
2023-01-10T08:31:50.883Z,564
2023-01-10T08:32:31.492Z,560
2023-01-10T08:33:12.785Z,560
2023-01-10T08:35:59.117Z,596
2023-01-10T08:36:39.787Z,608
2023-01-10T08:37:20.393Z,616
2023-01-10T08:38:01.080Z,620
2023-01-10T08:38:41.921Z,616
2023-01-10T08:39:22.463Z,624
2023-01-10T08:43:03.306Z,656
2023-01-10T08:43:43.957Z,660
2023-01-10T08:44:25.213Z,660
2023-01-10T08:45:07.836Z,668
2023-01-10T08:47:14.207Z,676
2023-01-10T08:47:57.233Z,680
2023-01-10T08:51:19.640Z,696
2023-01-10T08:52:00.439Z,712
2023-01-10T08:52:41.003Z,720
2023-01-10T08:53:22.261Z,696
2023-01-10T08:54:02.957Z,712
2023-01-10T08:54:43.577Z,708
2023-01-10T08:59:51.227Z,732
2023-01-10T09:03:13.530Z,736
2023-01-10T09:03:54.593Z,736
2023-01-10T09:04:35.175Z,740
2023-01-10T09:09:15.591Z,740
2023-01-10T09:09:56.564Z,740
2023-01-10T09:10:37.747Z,740
2023-01-10T09:11:18.355Z,740
2023-01-10T09:11:59.208Z,740
2023-01-10T09:12:40.309Z,732
2023-01-10T09:18:05.763Z,752
2023-01-10T09:18:46.535Z,752
2023-01-10T09:19:29.861Z,752
2023-01-10T09:25:35.557Z,800
2023-01-10T09:26:16.082Z,812
2023-01-10T09:26:56.792Z,824
2023-01-10T09:27:37.355Z,832
2023-01-10T09:28:17.963Z,844
2023-01-10T09:28:58.660Z,856
2023-01-10T09:29:40.067Z,872
2023-01-10T09:35:05.347Z,888
2023-01-10T09:35:46.038Z,892
2023-01-10T09:36:27.410Z,888
2023-01-10T09:37:07.707Z,892
2023-01-10T09:37:48.403Z,896
2023-01-10T09:38:28.924Z,880
2023-01-10T09:39:09.532Z,860
2023-01-10T09:39:50.164Z,848
2023-01-10T09:46:35.823Z,896
2023-01-10T09:47:22.342Z,916
2023-01-10T09:47:57.097Z,924
2023-01-10T09:48:37.634Z,928
2023-01-10T09:49:18.301Z,932
2023-01-10T09:49:58.911Z,928
2023-01-10T09:50:40.111Z,928
2023-01-10T09:53:55.754Z,908
2023-01-10T09:54:35.561Z,908
2023-01-10T09:55:17.215Z,912
2023-01-10T09:55:58.319Z,916
2023-01-10T09:59:24.192Z,896
2023-01-10T10:02:40.061Z,892
2023-01-10T10:03:20.521Z,900
2023-01-10T10:04:01.151Z,896
2023-01-10T10:08:00.289Z,956
2023-01-10T10:08:40.857Z,968
2023-01-10T10:09:21.726Z,972
2023-01-10T10:10:02.983Z,964
2023-01-10T10:10:43.513Z,960
2023-01-10T10:11:24.089Z,956
2023-01-10T10:12:04.849Z,948
2023-01-10T10:12:45.438Z,956
2023-01-10T10:20:25.607Z,1028
2023-01-10T10:21:06.148Z,1032
2023-01-10T10:24:36.764Z,1072
2023-01-10T10:25:17.315Z,1092
2023-01-10T10:25:58.043Z,1100
2023-01-10T10:26:38.812Z,1108
2023-01-10T10:27:19.378Z,1108
2023-01-10T10:27:59.988Z,1104
2023-01-10T10:28:50.034Z,1108
2023-01-10T10:29:21.421Z,1096
2023-01-10T10:34:06.798Z,1028
2023-01-10T10:34:47.366Z,1016
2023-01-10T10:35:27.962Z,1012
2023-01-10T10:36:08.580Z,1008
2023-01-10T10:36:57.656Z,996
2023-01-10T10:37:41.112Z,984
2023-01-10T10:38:21.686Z,976
2023-01-10T10:43:46.599Z,952
2023-01-10T10:44:27.651Z,952
2023-01-10T10:45:09.036Z,956
2023-01-10T10:45:49.638Z,960
2023-01-10T10:46:31.372Z,960
2023-01-10T10:51:16.661Z,992
2023-01-10T10:51:57.337Z,992
2023-01-10T10:52:37.917Z,996
2023-01-10T10:53:18.647Z,1000
2023-01-10T10:54:00.268Z,1008
2023-01-10T10:54:41.227Z,1008
2023-01-10T10:59:27.143Z,988
2023-01-10T11:00:07.780Z,996
2023-01-10T11:00:48.664Z,1000
2023-01-10T11:01:29.858Z,1004
2023-01-10T11:02:10.336Z,1008
2023-01-10T11:02:51.140Z,1012
2023-01-10T11:03:31.792Z,1012
2023-01-10T11:04:57.106Z,1020
2023-01-10T11:05:39.946Z,1016
2023-01-10T11:06:20.462Z,1016
2023-01-10T11:07:01.038Z,1016
2023-01-10T11:10:16.279Z,996
2023-01-10T11:10:57.505Z,992
2023-01-10T11:11:38.511Z,988
2023-01-10T11:12:20.530Z,984
2023-01-10T11:14:26.665Z,984
2023-01-10T11:15:09.428Z,976
2023-01-10T11:15:50.586Z,976
2023-01-10T11:19:11.482Z,960
2023-01-10T11:19:55.551Z,960
2023-01-10T11:20:37.490Z,960
2023-01-10T11:21:21.230Z,952
2023-01-10T11:23:36.879Z,948
2023-01-10T11:24:17.426Z,948
2023-01-10T11:26:36.318Z,932
2023-01-10T11:27:18.635Z,932
2023-01-10T11:27:59.727Z,924
2023-01-10T11:28:40.991Z,920
2023-01-10T11:29:21.944Z,920
2023-01-10T11:30:04.374Z,916
2023-01-10T11:31:29.282Z,912
2023-01-10T11:32:11.241Z,912
2023-01-10T11:32:52.272Z,912
2023-01-10T11:33:33.746Z,908
2023-01-10T11:35:46.567Z,920
2023-01-10T11:36:27.051Z,924
2023-01-10T11:39:20.923Z,924
2023-01-10T11:40:01.422Z,920
2023-01-10T11:40:42.315Z,920
2023-01-10T11:41:22.841Z,920
2023-01-10T11:42:03.572Z,920
2023-01-10T11:42:44.038Z,924
2023-01-10T11:43:24.572Z,924
2023-01-10T11:44:05.205Z,920
2023-01-10T11:44:45.733Z,920
2023-01-10T11:51:31.011Z,908
2023-01-10T11:52:11.561Z,908
2023-01-10T11:52:52.102Z,908
2023-01-10T11:53:32.748Z,908
2023-01-10T11:54:13.198Z,916
2023-01-10T12:32:30.625Z,684
2023-01-10T12:33:11.071Z,676
2023-01-10T12:33:51.598Z,672
2023-01-10T12:34:32.186Z,668
2023-01-10T12:35:14.101Z,664
2023-01-10T12:35:53.775Z,668
2023-01-10T12:36:34.263Z,660
2023-01-10T12:37:15.605Z,660
2023-01-10T12:44:01.325Z,624
2023-01-10T12:44:42.613Z,616
2023-01-10T12:45:22.452Z,608
2023-01-10T12:46:09.697Z,604
2023-01-10T12:47:05.557Z,596
2023-01-10T12:47:24.167Z,588
2023-01-10T12:48:04.869Z,584
2023-01-10T12:48:45.492Z,576
2023-01-10T12:54:10.053Z,552
2023-01-10T12:54:50.564Z,552
2023-01-10T12:55:31.042Z,552
2023-01-10T12:56:11.568Z,552
2023-01-10T12:56:52.108Z,552
2023-01-10T12:57:32.721Z,552
2023-01-10T12:58:13.267Z,552
2023-01-10T12:58:53.777Z,552
2023-01-10T12:59:37.558Z,552
2023-01-10T13:00:14.855Z,556
2023-01-10T13:09:08.564Z,556
2023-01-10T13:09:49.411Z,552
2023-01-10T13:10:30.033Z,548
2023-01-10T13:11:10.636Z,548
2023-01-10T13:11:51.299Z,544
2023-01-10T13:12:31.779Z,540
2023-01-10T13:13:12.356Z,532
2023-01-10T13:13:52.805Z,532
2023-01-10T13:14:33.516Z,524
2023-01-10T13:19:58.187Z,524
2023-01-10T13:20:38.748Z,524
2023-01-10T13:21:19.272Z,516
2023-01-10T13:21:59.813Z,516
2023-01-10T13:22:40.375Z,512
2023-01-10T13:23:21.005Z,504
2023-01-10T13:24:01.576Z,496
2023-01-10T13:24:42.173Z,492
2023-01-10T13:25:22.984Z,488
2023-01-10T13:30:26.446Z,412
2023-01-10T13:31:07.156Z,404
2023-01-10T13:31:49.068Z,400
2023-01-10T13:32:28.086Z,392
2023-01-10T13:33:08.645Z,388
2023-01-10T13:33:49.162Z,388
2023-01-10T13:34:29.868Z,384
2023-01-10T13:35:10.355Z,384
2023-01-10T13:35:50.886Z,376
2023-01-10T13:39:13.345Z,348
2023-01-10T13:39:53.807Z,340
2023-01-10T13:40:34.531Z,332
2023-01-10T13:41:15.166Z,328
2023-01-10T13:41:55.789Z,324
2023-01-10T13:42:36.455Z,320
2023-01-10T13:43:17.105Z,316
2023-01-10T13:43:57.863Z,316
2023-01-10T13:44:38.231Z,316
2023-01-10T13:50:03.211Z,300
2023-01-10T13:50:43.679Z,296
2023-01-10T13:51:24.183Z,296
2023-01-10T13:52:05.302Z,296
2023-01-10T13:52:45.839Z,292
2023-01-10T13:53:26.354Z,288
2023-01-10T13:54:06.867Z,284
2023-01-10T13:54:47.344Z,280
2023-01-10T13:55:27.976Z,280
2023-01-10T14:02:13.453Z,260
2023-01-10T14:02:53.954Z,260
2023-01-10T14:03:34.487Z,256
2023-01-10T14:04:15.108Z,260
2023-01-10T14:04:55.702Z,260
2023-01-10T14:05:37.027Z,256
2023-01-10T14:06:17.529Z,256
2023-01-10T14:06:58.084Z,256
2023-01-10T14:12:23.106Z,224
2023-01-10T14:13:03.704Z,224
2023-01-10T14:13:44.333Z,216
2023-01-10T14:14:24.845Z,212
2023-01-10T14:15:05.528Z,212
2023-01-10T14:15:46.144Z,208
2023-01-10T14:16:26.671Z,204
2023-01-10T14:17:07.173Z,196
2023-01-10T14:17:47.856Z,196
2023-01-10T14:18:28.402Z,188
2023-01-10T14:19:09.064Z,188
2023-01-10T14:19:49.665Z,184
2023-01-10T14:20:30.112Z,184
2023-01-10T14:21:10.775Z,176
2023-01-10T14:21:51.221Z,176
2023-01-10T14:22:32.360Z,180
2023-01-10T14:27:20.458Z,172
2023-01-10T14:28:00.655Z,168
2023-01-10T14:28:41.320Z,164
2023-01-10T14:29:21.905Z,160
2023-01-10T14:34:47.019Z,136
2023-01-10T14:35:27.709Z,136
2023-01-10T14:36:08.465Z,136
2023-01-10T14:36:49.343Z,136
2023-01-10T14:37:33.060Z,132
2023-01-10T14:39:36.970Z,128
2023-01-10T14:40:18.372Z,124
2023-01-10T14:40:58.885Z,124
2023-01-10T14:41:39.436Z,124
2023-01-10T14:42:19.987Z,120
2023-01-10T14:43:01.562Z,116
2023-01-10T14:43:42.331Z,108
2023-01-10T14:45:47.048Z,100
2023-01-10T14:46:27.736Z,100
2023-01-10T14:47:08.855Z,92
2023-01-10T14:47:49.422Z,92
2023-01-10T14:48:30.062Z,88
2023-01-10T14:49:10.527Z,88
2023-01-10T14:49:51.152Z,88
2023-01-10T14:50:31.753Z,84
2023-01-10T14:51:12.217Z,80
2023-01-10T14:57:17.338Z,68
2023-01-10T14:57:57.874Z,68
2023-01-10T14:58:38.409Z,60
2023-01-10T14:59:18.938Z,56
2023-01-10T14:59:59.428Z,60
2023-01-10T15:00:39.955Z,60
2023-01-10T15:01:20.555Z,64
2023-01-10T15:02:41.621Z,68
2023-01-10T15:03:22.110Z,64
2023-01-10T15:08:47.604Z,64
2023-01-10T15:09:28.000Z,64
2023-01-10T15:10:08.554Z,60
2023-01-10T15:10:49.114Z,56
2023-01-10T15:11:29.671Z,52
2023-01-10T15:12:10.574Z,52
2023-01-10T15:12:50.742Z,52
2023-01-10T15:13:31.376Z,48
2023-01-10T15:14:11.857Z,48
2023-01-10T15:18:13.057Z,52
2023-01-10T15:18:53.884Z,48
2023-01-10T15:19:34.347Z,48
2023-01-10T15:20:15.637Z,48
2023-01-10T15:20:56.184Z,48
2023-01-10T15:21:36.758Z,52
2023-01-10T15:24:06.449Z,48
2023-01-10T15:24:46.741Z,44
2023-01-10T15:25:27.240Z,44
2023-01-10T15:26:12.296Z,44
2023-01-10T15:28:16.639Z,36
2023-01-10T15:28:56.887Z,36
2023-01-10T15:29:37.504Z,32
2023-01-10T15:30:18.109Z,28
2023-01-10T15:30:58.679Z,24
2023-01-10T15:34:21.678Z,16
2023-01-10T15:35:02.453Z,16
2023-01-10T15:35:42.809Z,16
2023-01-10T15:36:25.585Z,16
2023-01-10T15:37:03.988Z,12
2023-01-10T15:37:44.563Z,12
2023-01-10T15:38:25.024Z,12
2023-01-10T15:39:05.763Z,8
2023-01-10T15:39:46.799Z,8
2023-01-10T15:46:04.561Z,4
2023-01-10T15:46:45.357Z,8
2023-01-10T15:47:27.185Z,4
2023-01-10T15:48:07.703Z,4
2023-01-10T15:48:49.013Z,4
2023-01-10T15:54:54.252Z,4
2023-01-10T15:55:34.778Z,0
2023-01-10T15:56:15.374Z,0
2023-01-10T15:56:55.918Z,0
2023-01-10T15:57:36.406Z,0
2023-01-10T15:58:16.886Z,0
2023-01-10T15:58:57.355Z,0
2023-01-10T15:59:38.170Z,0
2023-01-10T16:00:18.750Z,0
2023-01-10T16:00:59.371Z,0
2023-01-10T16:07:04.002Z,0
2023-01-10T16:07:44.505Z,0
2023-01-10T16:08:25.033Z,0
2023-01-10T16:09:05.663Z,0
2023-01-10T16:09:46.124Z,0
2023-01-10T16:10:26.714Z,0
2023-01-10T16:11:07.131Z,0
2023-01-10T16:11:47.623Z,0
2023-01-10T16:12:28.118Z,0
2023-01-10T16:13:08.584Z,0
2023-01-10T16:13:49.161Z,0
2023-01-10T16:18:09.244Z,0
2023-01-10T16:18:49.605Z,0
2023-01-10T16:19:30.109Z,0
2023-01-10T16:20:10.613Z,0
2023-01-10T16:20:51.153Z,0
2023-01-10T16:21:31.736Z,0
2023-01-10T16:22:12.166Z,0
2023-01-10T16:22:52.721Z,0
2023-01-10T16:23:33.196Z,0
2023-01-10T16:24:13.803Z,0
2023-01-10T16:30:58.957Z,0
2023-01-10T16:31:39.499Z,0
2023-01-10T16:32:19.935Z,0
2023-01-10T16:33:00.514Z,0
2023-01-10T16:33:41.060Z,0
2023-01-10T16:34:21.609Z,0
2023-01-10T16:35:02.111Z,0
2023-01-10T16:35:42.531Z,0
2023-01-10T16:36:23.625Z,0
2023-01-10T16:43:08.922Z,0
2023-01-10T16:43:49.438Z,0
2023-01-10T16:44:29.947Z,0
2023-01-10T16:45:10.423Z,0
2023-01-10T16:45:51.082Z,0
2023-01-10T16:46:31.469Z,0
2023-01-10T16:47:11.967Z,0
2023-01-10T16:47:52.524Z,0
2023-01-10T16:48:33.013Z,0
2023-01-10T16:49:13.483Z,0
2023-01-10T16:49:53.961Z,0
2023-01-10T16:56:39.072Z,0
2023-01-10T16:57:19.608Z,0
2023-01-10T16:58:00.244Z,0
2023-01-10T16:58:40.692Z,0
2023-01-10T16:59:21.192Z,0
2023-01-10T17:00:01.728Z,0
2023-01-10T17:00:42.309Z,0
2023-01-10T17:02:03.625Z,0
2023-01-10T17:02:44.004Z,0
2023-01-10T17:07:29.176Z,0
2023-01-10T17:08:09.400Z,0
2023-01-10T17:08:49.866Z,0
2023-01-10T17:09:30.376Z,0
2023-01-10T17:10:10.917Z,0
2023-01-10T17:10:51.493Z,0
2023-01-10T17:11:31.967Z,0
2023-01-10T17:12:12.547Z,0
2023-01-10T17:12:52.960Z,0
2023-01-10T17:13:33.452Z,0
2023-01-10T17:14:13.989Z,0
2023-01-10T17:17:39.265Z,0
2023-01-10T17:18:19.843Z,0
2023-01-10T17:19:00.285Z,0
2023-01-10T17:19:40.876Z,0
2023-01-10T17:20:21.341Z,0
2023-01-10T17:21:01.861Z,0
2023-01-10T17:21:42.364Z,0
2023-01-10T17:22:22.892Z,0
2023-01-10T17:23:43.892Z,0
2023-01-10T17:30:28.891Z,0
2023-01-10T17:33:42.632Z,0
2023-01-10T17:34:23.122Z,0
2023-01-10T17:35:03.721Z,0
2023-01-10T17:35:44.148Z,0
2023-01-10T17:36:24.812Z,0
2023-01-10T17:37:05.301Z,0
2023-01-10T17:37:45.818Z,0
2023-01-10T17:38:26.314Z,0
2023-01-10T17:39:06.833Z,0
2023-01-10T17:39:47.332Z,0
2023-01-10T17:45:52.632Z,0
2023-01-10T17:46:33.103Z,0
2023-01-10T17:47:13.608Z,0
2023-01-10T17:47:54.191Z,0
2023-01-10T17:48:34.637Z,0
2023-01-10T17:49:15.192Z,0
2023-01-10T17:49:55.740Z,0
2023-01-10T17:50:36.181Z,0
2023-01-10T17:51:16.673Z,0
2023-01-10T17:51:57.208Z,0
2023-01-10T18:34:00.358Z,0
2023-01-10T18:34:40.834Z,0
2023-01-10T18:35:21.375Z,0
2023-01-10T18:36:02.121Z,0
2023-01-10T18:36:42.754Z,0
2023-01-10T18:37:23.376Z,0
2023-01-10T18:38:03.801Z,0
2023-01-10T18:38:44.446Z,0
2023-01-10T18:39:24.902Z,0
2023-01-10T18:40:05.643Z,0
2023-01-10T18:47:31.197Z,0
2023-01-10T18:48:11.685Z,0
2023-01-10T18:48:53.346Z,0
2023-01-10T18:49:33.892Z,0
2023-01-10T18:50:15.956Z,0
2023-01-10T18:53:01.023Z,0
2023-01-10T18:53:41.484Z,0
2023-01-10T18:54:21.960Z,0
2023-01-10T18:55:02.749Z,0
2023-01-10T18:55:43.045Z,0
2023-01-10T18:56:23.536Z,0
2023-01-10T18:59:38.252Z,0
2023-01-10T19:00:17.871Z,0
2023-01-10T19:00:58.394Z,0
2023-01-10T19:01:38.884Z,0
2023-01-10T19:02:19.445Z,0
2023-01-10T19:02:59.853Z,0
2023-01-10T19:06:18.688Z,0
2023-01-10T19:06:59.814Z,0
2023-01-10T19:07:40.268Z,0
2023-01-10T19:08:21.508Z,0
2023-01-10T19:09:02.148Z,0
2023-01-10T19:09:42.965Z,0
2023-01-10T19:15:04.513Z,0
2023-01-10T19:15:45.209Z,0
2023-01-10T19:16:25.883Z,0
2023-01-10T19:17:06.374Z,0
2023-01-10T19:17:46.927Z,0
2023-01-10T19:18:27.599Z,0
2023-01-10T19:19:08.104Z,0
2023-01-10T19:19:48.611Z,0
2023-01-10T19:20:29.181Z,0
2023-01-10T19:26:34.653Z,0
2023-01-10T19:27:15.136Z,0
2023-01-10T19:27:55.646Z,0
2023-01-10T19:28:36.187Z,0
2023-01-10T19:29:16.687Z,0
2023-01-10T19:29:57.221Z,0
2023-01-10T19:30:37.701Z,0
2023-01-10T19:31:18.455Z,0
2023-01-10T19:31:58.849Z,0
2023-01-10T19:32:39.338Z,0
2023-01-10T19:41:04.353Z,0
2023-01-10T19:41:44.804Z,0
2023-01-10T19:42:26.190Z,0
2023-01-10T19:43:06.011Z,0
2023-01-10T19:43:46.494Z,0
2023-01-10T19:44:27.051Z,0
2023-01-10T19:47:42.216Z,0
2023-01-10T19:48:22.692Z,0
2023-01-10T19:49:03.236Z,0
2023-01-10T19:49:43.686Z,0
2023-01-10T19:50:24.185Z,0
2023-01-10T19:51:04.888Z,0
2023-01-10T19:51:45.409Z,0
2023-01-10T19:53:06.734Z,0
2023-01-10T19:53:47.209Z,0
2023-01-10T19:59:51.969Z,0
2023-01-10T20:00:32.535Z,0
2023-01-10T20:01:13.189Z,0
2023-01-10T20:01:53.630Z,0
2023-01-10T20:02:34.139Z,0
2023-01-10T20:03:14.667Z,0
2023-01-10T20:03:55.199Z,0
2023-01-10T20:04:35.665Z,0
2023-01-10T20:05:16.172Z,0
2023-01-10T20:05:56.781Z,0
2023-01-10T20:12:19.824Z,0
2023-01-10T20:12:59.976Z,0
2023-01-10T20:13:40.972Z,0
2023-01-10T20:14:21.548Z,0
2023-01-10T20:15:02.030Z,0
2023-01-10T20:15:42.689Z,0
2023-01-10T20:16:23.205Z,0
2023-01-10T20:17:03.574Z,0
2023-01-10T20:17:44.096Z,0
2023-01-10T20:24:17.064Z,0
2023-01-10T20:24:57.753Z,0
2023-01-10T20:25:38.213Z,0
2023-01-10T20:26:18.670Z,0
2023-01-10T20:26:59.246Z,0
2023-01-10T20:27:39.695Z,0
2023-01-10T20:28:20.226Z,0